CheckWX is a tool to help pilots better visualize weather data.  It is not intended as a substitute for an official pre-flight weather briefing.

07:16:19 UTC

KRHV METAR
Reid-Hillview Airport of Santa Clara County
San Jose, California, USA
Current

2 hours ago

KRHV 140447Z 28004KT 10SM SKC 17/11 A2991 RMK LAST
Observed
Jul-14 @ 04:47 UTC
Wind
  • 280° at 4 KTS
Visibility
10 SM
Flight Rules
VFR
Cloud Levels
  • Clear skies
Temperature
17°C / 63°F
Dewpoint
11°C / 52°F
Humidity
68%
Altimeter
29.91" Hg
Pressure
1012.92 hPa
Previous

3 hours ago

KRHV 140347Z 30006KT 10SM SKC 19/12 A2989
Observed
Jul-14 @ 03:47 UTC
Wind
  • 300° at 6 KTS
Visibility
10 SM
Flight Rules
VFR
Cloud Levels
  • Clear skies
Temperature
19°C / 66°F
Dewpoint
12°C / 54°F
Humidity
64%
Altimeter
29.89" Hg
Pressure
1012.22 hPa
Previous

4 hours ago

KRHV 140247Z 29008KT 10SM SKC 22/12 A2987
Observed
Jul-14 @ 02:47 UTC
Wind
  • 290° at 8 KTS
Visibility
10 SM
Flight Rules
VFR
Cloud Levels
  • Clear skies
Temperature
22°C / 72°F
Dewpoint
12°C / 54°F
Humidity
53%
Altimeter
29.87" Hg
Pressure
1011.52 hPa